This demonstration page uses our WeatherBlox Daily Observations layout. Learn more.

39.92423, -83.80882

Hourly Observations for April 29, 2015

Temp ( °F °C ) Dew Point ( °F °C ) Humidity (%) Winds ( mph kmh ) Pressure ( in mb ) Visibility ( mi km ) Precip ( " mm )
12:56 am 00:56 Clear 45 7.2 38 3.3 77 77 ENE 3 6 29.96 1015 7 11.26538 0 0
1:56 am 01:56 Clear 44 6.6 37 2.7 76 76 NNE 3 6 29.94 1014 7 11.26538 0 0
2:56 am 02:56 Clear 44 6.6 37 2.7 76 76 Calm 29.92 1013 7 11.26538 0 0
3:56 am 03:56 Clear 42 5.5 37 2.7 82 82 Calm 29.91 1013 7 11.26538 0 0
4:56 am 04:56 Clear 40 4.4 37 2.7 89 89 Calm 29.91 1013 7 11.26538 0 0
5:56 am 05:56 Clear with Mist and Fog 37 2.7 35 1.6 93 93 Calm 29.91 1013 6 9.65604 0 0
6:56 am 06:56 Sunny with Mist and Fog 38 3.3 37 2.7 96 96 SE 3 6 29.92 1013 4 6.43736 0 0
7:56 am 07:56 Sunny with Mist and Fog 42 5.5 40 4.4 93 93 NNW 5 7 29.92 1013 4 6.43736 0 0
8:56 am 08:56 Hazy 51 10.5 42 5.5 71 71 NE 3 6 29.91 1013 5 8.0467 0 0
9:56 am 09:56 Hazy 56 13.3 41 5 57 57 E 3 6 29.9 1013 6 9.65604 0 0
10:56 am 10:56 Hazy 61 16.1 42 5.5 50 50 ENE 7 11 29.89 1012 6 9.65604 0 0
11:56 am 11:56 Hazy 62 16.6 41 5 46 46 VRB 5 7 29.89 1012 6 9.65604 0 0
12:56 pm 12:56 Hazy 62 16.6 41 5 46 46 VRB 6 9 29.87 1011 6 9.65604 0 0
1:56 pm 13:56 Mostly Cloudy with Haze 63 17.2 41 5 45 45 NNW 6 9 29.85 1011 6 9.65604 0 0
2:56 pm 14:56 Hazy 65 18.3 41 5 42 42 NW 9 15 29.83 1010 6 9.65604 0 0
3:56 pm 15:56 Mostly Cloudy with Haze 65 18.3 40 4.4 40 40 W 3 6 29.81 1010 6 9.65604 0 0
4:56 pm 16:56 Cloudy with Haze 65 18.3 41 5 42 42 NNW 9 15 29.8 1009 6 9.65604 0 0
5:56 pm 17:56 Cloudy with Haze 64 17.7 40 4.4 42 42 NW 8 13 29.8 1009 6 9.65604 0 0
6:56 pm 18:56 Hazy 62 16.6 42 5.5 48 48 NW 6 9 29.8 1009 6 9.65604 0 0
7:56 pm 19:56 Cloudy with Haze 60 15.5 43 6.1 54 54 NNW 6 9 29.8 1009 6 9.65604 0 0
8:56 pm 20:56 Cloudy 59 15 42 5.5 53 53 NW 5 7 29.8 1009 8 12.87472 0 0
9:56 pm 21:56 Cloudy 58 14.4 42 5.5 55 55 NW 7 11 29.8 1009 7 11.26538 0 0
10:56 pm 22:56 Cloudy 58 14.4 43 6.1 58 58 NW 7 11 29.79 1009 7 11.26538 0 0
11:56 pm 23:56 Cloudy 57 13.8 43 6.1 60 60 NW 8 13 29.78 1009 7 11.26538 0 0

Powered by AerisWeather